Time;durP1;ratioP1;P1;durP2;ratioP2;P2;SDS_P1;SDS_P2;PMS_P1;PMS_P2;Temp;Humidity;BMP_temperature;BMP_pressure;BME280_temperature;BME280_humidity;BME280_pressure;Samples;Min_cycle;Max_cycle;Signal;HPM_P1;HPM_P2
2021/08/20 00:02:15;;;;;;;12.55;5.43;;;;;;;13.97;54.67;101347.66;5032627;28;20446;-70
2021/08/20 00:04:40;;;;;;;9.77;3.83;;;;;;;13.94;54.74;101344.25;5033308;28;20032;-70
2021/08/20 00:07:06;;;;;;;9.20;4.13;;;;;;;14.11;54.16;101339.97;5033660;28;20040;-73
2021/08/20 00:09:31;;;;;;;9.52;4.53;;;;;;;14.21;53.64;101346.50;5032459;28;20052;-70
2021/08/20 00:11:57;;;;;;;13.43;5.45;;;;;;;14.10;54.16;101344.38;5037276;28;20032;-68
2021/08/20 00:14:23;;;;;;;14.25;4.55;;;;;;;14.21;54.35;101343.88;5036193;28;20033;-70
2021/08/20 00:16:49;;;;;;;8.48;4.38;;;;;;;14.13;54.20;101348.63;5038705;28;20489;-70
2021/08/20 00:19:15;;;;;;;9.25;4.03;;;;;;;14.25;54.08;101342.78;5039385;28;20558;-70
2021/08/20 00:21:40;;;;;;;9.00;4.53;;;;;;;14.28;53.84;101339.16;5039915;28;20128;-72
2021/08/20 00:24:07;;;;;;;10.40;5.40;;;;;;;14.17;53.80;101342.31;5036962;28;20112;-72
2021/08/20 00:26:33;;;;;;;11.98;5.00;;;;;;;14.22;54.01;101336.84;5037423;28;20032;-70
2021/08/20 00:28:59;;;;;;;17.13;4.88;;;;;;;14.24;54.23;101334.97;5037769;28;20041;-71
2021/08/20 00:31:24;;;;;;;12.00;4.07;;;;;;;14.23;54.08;101338.53;5038397;28;20028;-70
2021/08/20 00:33:50;;;;;;;10.15;4.72;;;;;;;14.08;54.13;101345.38;5042832;28;20029;-70
2021/08/20 00:36:16;;;;;;;11.93;4.07;;;;;;;14.17;54.27;101337.06;5034856;28;20092;-68
2021/08/20 00:38:41;;;;;;;7.50;4.28;;;;;;;14.24;53.92;101329.72;5036818;28;20061;-65
2021/08/20 00:41:11;;;;;;;8.30;4.03;;;;;;;14.20;54.09;101321.13;5035856;28;20479;-65
2021/08/20 00:43:38;;;;;;;10.57;5.00;;;;;;;14.17;54.32;101323.06;5042547;28;20407;-65
2021/08/20 00:46:06;;;;;;;9.30;4.65;;;;;;;14.08;54.37;101324.34;5036595;28;20063;-66
2021/08/20 00:48:32;;;;;;;7.32;4.20;;;;;;;14.06;54.73;101324.41;5036434;28;20096;-67
2021/08/20 00:51:12;;;;;;;8.73;4.55;;;;;;;14.02;54.68;101324.63;5036717;28;20029;-66
2021/08/20 00:53:38;;;;;;;12.27;4.53;;;;;;;14.01;54.63;101326.44;5043028;28;20096;-71
2021/08/20 00:56:05;;;;;;;10.88;5.00;;;;;;;14.02;54.05;101327.28;5040641;28;20045;-70
2021/08/20 00:58:34;;;;;;;11.45;4.57;;;;;;;13.97;54.54;101326.66;5037093;28;20433;-71
2021/08/20 01:00:59;;;;;;;12.20;4.80;;;;;;;13.93;54.65;101323.28;5036342;28;20037;-71
2021/08/20 01:03:27;;;;;;;9.35;4.57;;;;;;;13.96;54.34;101330.19;5036050;28;20040;-71
2021/08/20 01:05:53;;;;;;;17.17;4.85;;;;;;;13.97;55.08;101334.53;5045163;28;20059;-71
2021/08/20 01:08:24;;;;;;;11.00;4.32;;;;;;;14.05;54.48;101329.75;5034970;28;20103;-66
2021/08/20 01:10:51;;;;;;;8.23;4.28;;;;;;;14.09;54.37;101326.88;5050923;28;20051;-66
2021/08/20 01:13:19;;;;;;;9.38;4.85;;;;;;;14.06;54.86;101327.03;5036223;28;20108;-70
2021/08/20 01:15:46;;;;;;;9.40;4.32;;;;;;;14.13;54.58;101327.59;5040139;28;21407;-67
2021/08/20 01:18:23;;;;;;;9.02;4.72;;;;;;;13.98;55.05;101323.91;5038369;28;20048;-67
2021/08/20 01:20:50;;;;;;;10.07;4.20;;;;;;;14.12;54.57;101316.25;5041135;28;20127;-68
2021/08/20 01:23:21;;;;;;;15.52;5.47;;;;;;;14.14;54.60;101324.03;5037517;28;20043;-67
2021/08/20 01:25:47;;;;;;;10.93;4.80;;;;;;;14.09;54.51;101312.91;5033839;28;20406;-67
2021/08/20 01:28:14;;;;;;;9.45;5.30;;;;;;;14.01;54.55;101325.53;5039195;28;20307;-67
2021/08/20 01:30:40;;;;;;;8.93;4.05;;;;;;;14.07;54.85;101320.00;5040204;28;20076;-68
2021/08/20 01:33:07;;;;;;;7.93;4.00;;;;;;;14.16;54.87;101332.72;5036264;28;20121;-67
2021/08/20 01:35:33;;;;;;;8.43;4.38;;;;;;;14.19;54.60;101319.44;5043082;28;20062;-66
2021/08/20 01:38:00;;;;;;;8.55;4.85;;;;;;;14.23;54.74;101323.63;5032850;28;20033;-67
2021/08/20 01:40:26;;;;;;;16.75;5.30;;;;;;;14.20;54.63;101318.50;5036230;28;20091;-67
2021/08/20 01:42:51;;;;;;;9.95;5.10;;;;;;;14.24;54.62;101308.69;5034578;28;20033;-67
2021/08/20 01:45:19;;;;;;;12.38;5.45;;;;;;;14.15;54.48;101316.09;5050863;28;20037;-67
2021/08/20 01:47:45;;;;;;;10.80;5.25;;;;;;;14.18;54.67;101315.09;5033300;28;20044;-67
2021/08/20 01:50:11;;;;;;;11.23;4.93;;;;;;;14.25;54.69;101305.13;5036256;28;20029;-67
2021/08/20 01:52:37;;;;;;;10.52;5.53;;;;;;;14.13;54.89;101303.94;5036327;28;20055;-67
2021/08/20 01:55:06;;;;;;;14.85;6.18;;;;;;;14.03;55.51;101302.69;5036987;28;20554;-66
2021/08/20 01:57:31;;;;;;;12.32;5.72;;;;;;;14.08;55.15;101303.31;5051749;28;20032;-64
2021/08/20 01:59:57;;;;;;;11.45;6.50;;;;;;;14.03;55.17;101302.69;5035254;28;20498;-66
2021/08/20 02:02:23;;;;;;;11.60;6.05;;;;;;;13.95;55.42;101305.69;5039499;28;20036;-65
2021/08/20 02:04:48;;;;;;;17.90;6.82;;;;;;;13.98;55.77;101297.63;5035922;28;20359;-67
2021/08/20 02:07:14;;;;;;;15.05;6.90;;;;;;;13.98;54.86;101294.16;5036274;28;20033;-65
2021/08/20 02:09:41;;;;;;;14.88;6.60;;;;;;;13.92;55.49;101292.69;5036866;28;20029;-65
2021/08/20 02:12:07;;;;;;;11.77;6.38;;;;;;;13.90;55.77;101290.13;5035810;28;20025;-65
2021/08/20 02:14:47;;;;;;;11.40;6.18;;;;;;;13.82;55.97;101287.00;5036545;28;20358;-65
2021/08/20 02:17:12;;;;;;;13.10;5.50;;;;;;;13.84;55.97;101300.94;5033785;28;20143;-65
2021/08/20 02:19:38;;;;;;;12.25;5.60;;;;;;;13.99;55.75;101309.88;5041076;28;20033;-66
2021/08/20 02:22:04;;;;;;;12.48;6.10;;;;;;;14.05;55.48;101304.31;5033014;28;20045;-66
2021/08/20 02:24:42;;;;;;;11.45;5.55;;;;;;;14.01;55.50;101312.41;5038566;28;20638;-67
2021/08/20 02:27:07;;;;;;;14.32;7.45;;;;;;;13.99;55.75;101304.63;5051149;28;20037;-66
2021/08/20 02:29:34;;;;;;;12.35;5.80;;;;;;;14.01;55.80;101309.78;5038601;28;20018;-68
2021/08/20 02:32:03;;;;;;;10.77;5.75;;;;;;;14.06;55.63;101300.75;5042406;28;20024;-67
2021/08/20 02:34:29;;;;;;;10.73;5.72;;;;;;;14.12;55.34;101300.47;5039707;28;20029;-67
2021/08/20 02:36:54;;;;;;;10.45;5.35;;;;;;;14.16;55.61;101295.91;5035608;28;20029;-67
2021/08/20 02:39:20;;;;;;;12.32;6.28;;;;;;;13.87;55.87;101298.16;5032685;28;20029;-65
2021/08/20 02:41:45;;;;;;;12.77;5.45;;;;;;;14.06;55.78;101292.03;5036271;28;20032;-66
2021/08/20 02:44:11;;;;;;;11.70;5.72;;;;;;;14.03;55.48;101290.41;5032589;28;20041;-65
2021/08/20 02:46:38;;;;;;;11.13;5.47;;;;;;;14.04;55.38;101288.63;5040017;28;20120;-66
2021/08/20 02:49:04;;;;;;;10.35;5.57;;;;;;;14.06;55.56;101292.88;5031134;28;20110;-66
2021/08/20 02:51:29;;;;;;;10.30;5.47;;;;;;;14.06;55.40;101289.41;5036847;28;20489;-65
2021/08/20 02:53:58;;;;;;;9.77;4.72;;;;;;;14.01;55.51;101291.38;5037106;28;20124;-65
2021/08/20 02:56:24;;;;;;;10.23;5.03;;;;;;;14.06;55.55;101294.66;5034603;28;20127;-66
2021/08/20 02:58:55;;;;;;;8.52;5.03;;;;;;;14.03;55.74;101292.16;5042175;28;20039;-66
2021/08/20 03:01:21;;;;;;;9.48;5.03;;;;;;;14.07;55.11;101296.34;5035752;28;20041;-68
2021/08/20 03:03:48;;;;;;;10.73;4.93;;;;;;;13.99;55.37;101293.25;5053016;28;21108;-70
2021/08/20 03:06:22;;;;;;;12.27;4.57;;;;;;;14.04;55.20;101294.72;5035245;28;20044;-67
2021/08/20 03:08:48;;;;;;;10.02;5.22;;;;;;;13.99;55.43;101294.09;5040032;28;20106;-66
2021/08/20 03:11:15;;;;;;;11.20;4.60;;;;;;;13.51;56.76;101298.06;5018934;28;20044;-66
2021/08/20 03:13:40;;;;;;;9.73;4.78;;;;;;;13.94;55.78;101289.06;5034795;28;20525;-66
2021/08/20 03:16:06;;;;;;;10.02;4.70;;;;;;;13.87;55.88;101298.16;5032487;28;20037;-65
2021/08/20 03:18:33;;;;;;;10.45;3.97;;;;;;;13.91;55.76;101291.81;5041275;28;20087;-68
2021/08/20 03:21:00;;;;;;;6.32;3.85;;;;;;;13.94;55.49;101291.69;5039238;28;20173;-68
2021/08/20 03:23:37;;;;;;;10.05;4.63;;;;;;;13.70;56.31;101295.47;5034084;28;20033;-68
2021/08/20 03:26:06;;;;;;;10.48;4.45;;;;;;;13.85;56.08;101294.75;5048453;28;20414;-68
2021/08/20 03:28:40;;;;;;;9.93;3.92;;;;;;;13.83;55.81;101298.38;5040649;28;20534;-68
2021/08/20 03:31:06;;;;;;;6.80;4.13;;;;;;;14.04;55.64;101283.38;5032895;28;20022;-68
2021/08/20 03:33:35;;;;;;;7.43;4.18;;;;;;;14.04;55.67;101292.09;5041210;28;20037;-68
2021/08/20 03:36:11;;;;;;;9.88;4.15;;;;;;;13.78;56.06;101295.09;5048553;28;20037;-68
2021/08/20 03:38:38;;;;;;;8.10;4.30;;;;;;;13.78;56.29;101295.09;5033813;28;20029;-68
2021/08/20 03:41:06;;;;;;;7.25;3.72;;;;;;;14.00;55.81;101292.31;5035744;28;20060;-68
2021/08/20 03:43:48;;;;;;;5.90;3.80;;;;;;;14.02;55.89;101291.31;5039216;28;20084;-68
2021/08/20 03:46:14;;;;;;;9.52;4.10;;;;;;;13.60;56.93;101299.44;5035642;28;20497;-67
2021/08/20 03:48:44;;;;;;;7.90;4.68;;;;;;;13.67;56.68;101299.09;5037455;28;20061;-65
2021/08/20 03:51:13;;;;;;;8.82;4.70;;;;;;;13.69;56.65;101299.84;5037269;28;20481;-67
2021/08/20 03:53:39;;;;;;;6.38;3.92;;;;;;;14.07;55.82;101293.72;5037974;28;20242;-66
2021/08/20 03:56:05;;;;;;;11.02;4.90;;;;;;;14.07;55.75;101293.72;5039850;28;20509;-65
2021/08/20 03:59:08;;;;;;;7.78;3.85;;;;;;;13.86;56.66;101291.19;5023942;28;20037;-66
2021/08/20 04:01:34;;;;;;;8.93;4.78;;;;;;;13.92;56.44;101298.81;5044167;28;20044;-65
2021/08/20 04:04:00;;;;;;;6.78;3.95;;;;;;;14.01;56.14;101291.38;5050919;28;20029;-65
2021/08/20 04:06:40;;;;;;;8.23;4.20;;;;;;;14.07;56.01;101289.31;5039211;28;20382;-65
2021/08/20 04:09:08;;;;;;;12.05;5.30;;;;;;;14.12;55.70;101289.09;5050422;28;20033;-64
2021/08/20 04:11:42;;;;;;;7.45;4.55;;;;;;;14.05;56.00;101292.94;5036583;28;20075;-66
2021/08/20 04:14:28;;;;;;;10.27;5.28;;;;;;;14.02;56.49;101293.09;5034824;28;20071;-66
2021/08/20 04:16:54;;;;;;;11.70;5.90;;;;;;;13.75;57.34;101301.38;5040937;28;20029;-67
2021/08/20 04:19:19;;;;;;;9.32;5.63;;;;;;;14.06;56.42;101295.50;5018040;28;20532;-67
2021/08/20 04:21:47;;;;;;;13.50;5.80;;;;;;;14.23;56.04;101310.47;5041458;28;20087;-67
2021/08/20 04:24:15;;;;;;;14.50;5.88;;;;;;;14.26;56.11;101305.06;5034508;28;20089;-67
2021/08/20 04:26:42;;;;;;;9.40;5.60;;;;;;;14.35;55.82;101307.22;5051588;28;22870;-68
2021/08/20 04:29:13;;;;;;;10.98;5.95;;;;;;;14.27;55.85;101306.75;5053299;28;20056;-67
2021/08/20 04:31:58;;;;;;;12.73;7.18;;;;;;;14.24;56.29;101314.78;5036905;28;20392;-68
2021/08/20 04:34:37;;;;;;;13.32;7.75;;;;;;;14.20;56.51;101307.97;5053209;28;20036;-72
2021/08/20 04:37:19;;;;;;;14.52;6.97;;;;;;;14.19;56.17;101306.28;5029302;28;20033;-71
2021/08/20 04:39:54;;;;;;;14.23;8.45;;;;;;;13.91;56.99;101307.59;5038652;28;20679;-68
2021/08/20 04:42:40;;;;;;;21.45;9.63;;;;;;;13.96;57.05;101303.91;5044472;28;20025;-68
2021/08/20 04:45:16;;;;;;;18.00;10.60;;;;;;;13.85;57.82;101305.28;5042448;28;20033;-68
2021/08/20 04:48:08;;;;;;;19.88;10.02;;;;;;;13.93;58.01;101311.00;5043665;28;20030;-67
2021/08/20 04:51:04;;;;;;;18.98;10.77;;;;;;;13.96;57.83;101312.63;5042569;28;20032;-67
2021/08/20 04:53:53;;;;;;;23.52;12.35;;;;;;;13.99;57.86;101315.13;5019312;28;20065;-68
2021/08/20 04:56:20;;;;;;;25.17;11.50;;;;;;;13.75;58.83;101316.28;5034902;28;20065;-68
2021/08/20 04:58:47;;;;;;;22.88;11.73;;;;;;;13.97;57.79;101321.38;5034489;28;20273;-68
2021/08/20 05:01:14;;;;;;;26.52;12.82;;;;;;;13.90;58.16;101323.44;5034999;28;20036;-66
2021/08/20 05:03:40;;;;;;;23.33;11.45;;;;;;;13.91;58.33;101323.34;5049022;28;20044;-66
2021/08/20 05:06:05;;;;;;;26.30;11.15;;;;;;;14.23;57.49;101323.63;5038038;28;20305;-65
2021/08/20 05:08:31;;;;;;;23.02;12.57;;;;;;;14.22;57.63;101323.69;5042642;28;20025;-66
2021/08/20 05:10:57;;;;;;;20.25;11.57;;;;;;;14.14;57.79;101318.78;5035335;28;20088;-67
2021/08/20 05:13:22;;;;;;;23.05;13.32;;;;;;;14.18;57.54;101314.25;5034540;28;21254;-66
2021/08/20 05:15:47;;;;;;;24.90;13.15;;;;;;;14.34;57.28;101317.81;5037341;28;20044;-67
2021/08/20 05:18:13;;;;;;;22.95;12.02;;;;;;;14.49;57.19;101318.88;5035214;28;20044;-67
2021/08/20 05:20:39;;;;;;;22.77;12.98;;;;;;;14.09;57.98;101315.53;5034874;28;20088;-67
2021/08/20 05:23:04;;;;;;;25.15;12.40;;;;;;;14.21;57.64;101319.34;5037640;28;20482;-66
2021/08/20 05:25:34;;;;;;;24.48;13.60;;;;;;;14.05;58.25;101332.38;5050234;22;20073;-68
2021/08/20 05:28:00;;;;;;;27.30;13.20;;;;;;;14.48;57.35;101336.44;5037997;28;20065;-68
2021/08/20 05:30:26;;;;;;;22.85;13.32;;;;;;;14.55;57.04;101335.22;5027245;28;20067;-69
2021/08/20 05:32:51;;;;;;;19.52;12.30;;;;;;;14.25;57.66;101334.88;5021456;28;20073;-69
2021/08/20 05:35:17;;;;;;;24.25;12.15;;;;;;;14.51;56.90;101330.19;5034528;28;20028;-68
2021/08/20 05:37:43;;;;;;;20.80;11.85;;;;;;;14.51;57.16;101328.41;5041679;28;20379;-69
2021/08/20 05:40:11;;;;;;;25.52;12.80;;;;;;;14.54;57.03;101319.50;5036366;28;20107;-69
2021/08/20 05:42:37;;;;;;;23.20;13.30;;;;;;;14.61;56.94;101323.53;5027492;28;20110;-69
2021/08/20 05:45:03;;;;;;;24.23;11.75;;;;;;;14.33;57.48;101318.75;5035920;28;21838;-69
2021/08/20 05:47:28;;;;;;;23.02;12.55;;;;;;;14.53;57.06;101325.69;5038518;28;20037;-68
2021/08/20 05:49:54;;;;;;;23.15;13.45;;;;;;;14.17;57.86;101323.91;5011796;28;20505;-69
2021/08/20 05:52:19;;;;;;;21.38;12.18;;;;;;;14.46;57.28;101332.19;5041205;28;20640;-69
2021/08/20 05:54:45;;;;;;;21.13;12.18;;;;;;;14.97;56.46;101339.25;5025301;28;20042;-68
2021/08/20 05:57:10;;;;;;;24.38;13.02;;;;;;;14.83;56.25;101341.72;5023058;28;20041;-68
2021/08/20 05:59:36;;;;;;;18.02;11.85;;;;;;;15.22;55.94;101345.06;5022592;28;20071;-68
2021/08/20 06:02:01;;;;;;;21.13;11.48;;;;;;;15.34;55.50;101344.41;5042325;28;20112;-68
2021/08/20 06:04:27;;;;;;;22.73;11.43;;;;;;;15.06;55.39;101345.81;5004903;28;20132;-69
2021/08/20 06:06:53;;;;;;;15.25;10.25;;;;;;;14.56;56.65;101354.47;5021241;28;20425;-69
2021/08/20 06:09:20;;;;;;;19.48;11.98;;;;;;;14.85;56.33;101352.16;5008652;28;20125;-68
2021/08/20 06:11:45;;;;;;;19.27;11.07;;;;;;;14.90;55.99;101344.88;5009342;28;20125;-69
2021/08/20 06:14:11;;;;;;;21.45;12.68;;;;;;;15.25;55.72;101344.91;5012195;28;20078;-68
2021/08/20 06:16:36;;;;;;;24.52;12.52;;;;;;;15.50;55.38;101355.81;5040374;28;20061;-69
2021/08/20 06:19:02;;;;;;;22.20;12.70;;;;;;;15.23;55.39;101362.56;5027877;28;20026;-69
2021/08/20 06:21:27;;;;;;;22.40;13.13;;;;;;;15.31;55.12;101360.38;5024500;28;20032;-69
2021/08/20 06:23:53;;;;;;;20.27;11.35;;;;;;;15.31;54.98;101361.22;5011351;28;20041;-69
2021/08/20 06:26:18;;;;;;;24.40;12.65;;;;;;;15.18;55.13;101363.59;5020243;28;20041;-68
2021/08/20 06:28:44;;;;;;;28.90;14.18;;;;;;;14.98;55.76;101372.53;5033551;28;20044;-69
2021/08/20 06:31:09;;;;;;;24.67;13.25;;;;;;;14.85;56.30;101367.97;5019857;28;20078;-69
2021/08/20 06:33:37;;;;;;;20.33;12.52;;;;;;;14.71;56.89;101372.13;5038015;28;20040;-69
2021/08/20 06:36:03;;;;;;;22.45;11.40;;;;;;;14.82;57.17;101366.34;5010812;28;20041;-69
2021/08/20 06:38:29;;;;;;;18.20;11.23;;;;;;;14.82;57.12;101366.34;5019400;28;20395;-69
2021/08/20 06:40:54;;;;;;;19.55;10.93;;;;;;;14.94;56.30;101356.97;5037801;28;20029;-70
2021/08/20 06:43:20;;;;;;;19.08;11.18;;;;;;;14.98;56.57;101363.78;5024293;28;20479;-69
2021/08/20 06:45:46;;;;;;;25.25;12.60;;;;;;;15.26;56.28;101367.66;5036461;28;20029;-69
2021/08/20 06:48:14;;;;;;;18.20;10.98;;;;;;;15.12;56.27;101371.81;5035193;28;20041;-69
2021/08/20 06:50:40;;;;;;;19.05;10.80;;;;;;;14.84;56.65;101376.81;5016017;28;20124;-69
2021/08/20 06:53:06;;;;;;;21.92;9.52;;;;;;;14.89;56.88;101374.78;5001414;28;20033;-69
2021/08/20 06:55:32;;;;;;;22.55;11.00;;;;;;;15.30;56.06;101382.34;5017860;28;20021;-69
2021/08/20 06:57:58;;;;;;;19.08;9.35;;;;;;;15.15;55.30;101371.66;5020353;28;20045;-69
2021/08/20 07:00:23;;;;;;;17.85;9.38;;;;;;;15.53;55.18;101375.91;5035382;28;20089;-70
2021/08/20 07:02:49;;;;;;;15.43;8.95;;;;;;;15.82;55.59;101382.25;5025569;28;20087;-69
2021/08/20 07:05:15;;;;;;;16.85;8.40;;;;;;;15.76;54.63;101372.88;5041436;28;20037;-68
2021/08/20 07:07:41;;;;;;;14.40;8.43;;;;;;;15.93;53.96;101389.53;5020864;28;20033;-69
2021/08/20 07:10:16;;;;;;;16.38;8.93;;;;;;;16.25;53.93;101385.19;5025280;28;20039;-69
2021/08/20 07:12:43;;;;;;;12.27;7.72;;;;;;;16.07;53.82;101388.84;5019902;28;20123;-68
2021/08/20 07:15:11;;;;;;;16.90;9.02;;;;;;;16.14;53.94;101398.13;5021376;28;20483;-68
2021/08/20 07:17:37;;;;;;;12.68;7.95;;;;;;;16.81;52.33;101393.47;5008781;28;20094;-69
2021/08/20 07:20:05;;;;;;;10.68;6.57;;;;;;;17.10;52.26;101394.38;5033650;28;20041;-68
2021/08/20 07:22:31;;;;;;;11.73;7.40;;;;;;;16.88;51.03;101391.31;5031131;28;20032;-68
2021/08/20 07:24:56;;;;;;;13.27;7.03;;;;;;;17.80;51.50;101393.69;5004862;28;20039;-70
2021/08/20 07:27:22;;;;;;;14.18;7.40;;;;;;;19.83;46.98;101391.66;5029646;28;20048;-70
2021/08/20 07:29:49;;;;;;;8.57;6.07;;;;;;;21.43;40.93;101395.75;5021735;28;20437;-68
2021/08/20 07:32:15;;;;;;;6.03;5.40;;;;;;;23.18;36.13;101391.28;5015480;28;20033;-69
2021/08/20 07:34:40;;;;;;;9.98;4.88;;;;;;;25.21;34.44;101391.81;5016786;28;20057;-70
2021/08/20 07:37:06;;;;;;;6.80;4.20;;;;;;;25.38;32.27;101390.22;5015581;28;20048;-68
2021/08/20 07:39:33;;;;;;;6.40;3.85;;;;;;;24.10;34.71;101393.09;5032727;28;20048;-68
2021/08/20 07:41:59;;;;;;;7.20;4.30;;;;;;;23.20;35.30;101392.84;5002853;28;20131;-70
2021/08/20 07:44:25;;;;;;;4.57;2.78;;;;;;;23.17;36.71;101389.63;5033031;28;20626;-70
2021/08/20 07:46:51;;;;;;;7.90;4.45;;;;;;;21.93;38.64;101395.38;5031018;28;20064;-70
2021/08/20 07:49:17;;;;;;;7.25;3.50;;;;;;;20.62;41.70;101405.44;5032885;28;20022;-68
2021/08/20 07:51:43;;;;;;;4.15;3.40;;;;;;;20.36;42.50;101410.03;5020450;28;20445;-68
2021/08/20 07:54:08;;;;;;;4.60;3.45;;;;;;;18.83;44.37;101411.75;5030868;28;20057;-68
2021/08/20 07:56:34;;;;;;;7.43;4.15;;;;;;;18.53;46.41;101403.19;5019051;28;20032;-70
2021/08/20 07:58:59;;;;;;;9.32;4.45;;;;;;;17.92;47.88;101403.50;5014983;28;20991;-70
2021/08/20 08:01:25;;;;;;;8.65;3.72;;;;;;;18.81;47.46;101407.50;5015060;28;20449;-70
2021/08/20 08:03:50;;;;;;;5.80;3.10;;;;;;;19.20;44.54;101406.66;5033743;28;20055;-69
2021/08/20 08:06:16;;;;;;;7.38;3.42;;;;;;;20.76;43.07;101415.03;5031110;28;20121;-69
2021/08/20 08:08:43;;;;;;;8.82;3.75;;;;;;;22.02;39.72;101413.28;5034014;28;20230;-69
2021/08/20 08:11:11;;;;;;;4.78;3.20;;;;;;;22.72;38.57;101416.53;5004952;28;20048;-69
2021/08/20 08:13:37;;;;;;;5.38;2.83;;;;;;;20.28;42.46;101417.69;5017016;28;20028;-70
2021/08/20 08:16:03;;;;;;;4.57;3.03;;;;;;;18.79;45.71;101427.97;5016967;28;20048;-69
2021/08/20 08:18:29;;;;;;;5.75;3.13;;;;;;;17.58;47.72;101432.03;5015077;28;20558;-69
2021/08/20 08:20:55;;;;;;;5.65;3.53;;;;;;;17.63;48.92;101435.25;5017431;28;20025;-68
2021/08/20 08:23:21;;;;;;;5.65;3.58;;;;;;;17.54;49.55;101440.25;5018318;28;20049;-69
2021/08/20 08:25:46;;;;;;;6.53;4.05;;;;;;;17.31;50.09;101438.94;5008899;28;20029;-69
2021/08/20 08:28:12;;;;;;;4.93;3.40;;;;;;;16.40;51.51;101447.63;5019332;28;20514;-69
2021/08/20 08:30:39;;;;;;;7.43;4.82;;;;;;;16.73;51.66;101448.44;5018965;28;20037;-69
2021/08/20 08:33:06;;;;;;;9.73;3.60;;;;;;;16.21;52.29;101449.56;5034882;28;20144;-69
2021/08/20 08:35:32;;;;;;;8.20;5.03;;;;;;;16.06;52.29;101451.25;5021618;28;20025;-69
2021/08/20 08:38:06;;;;;;;5.80;4.57;;;;;;;15.90;52.83;101456.47;5038668;28;20040;-69
2021/08/20 08:40:32;;;;;;;6.78;4.57;;;;;;;16.16;53.14;101459.53;5026193;28;20029;-68
2021/08/20 08:42:58;;;;;;;5.35;4.05;;;;;;;16.27;52.89;101465.06;5024795;28;20106;-70
2021/08/20 08:45:24;;;;;;;6.20;4.32;;;;;;;16.49;52.65;101467.38;5036762;28;20033;-68
2021/08/20 08:47:53;;;;;;;8.55;5.15;;;;;;;16.00;53.34;101465.63;5033065;28;20589;-68
2021/08/20 08:50:19;;;;;;;7.28;4.43;;;;;;;16.06;53.08;101464.44;5016881;28;20065;-69
2021/08/20 08:52:45;;;;;;;6.25;4.70;;;;;;;17.68;53.10;101463.19;5021049;28;20047;-69
2021/08/20 08:55:11;;;;;;;7.88;4.75;;;;;;;18.36;46.80;101454.56;5035967;28;20025;-68
2021/08/20 08:57:36;;;;;;;6.80;4.25;;;;;;;18.40;48.42;101451.63;5008982;28;20103;-68
2021/08/20 09:00:04;;;;;;;4.85;3.70;;;;;;;18.31;48.50;101459.31;5032839;28;20747;-69
2021/08/20 09:02:32;;;;;;;8.73;3.35;;;;;;;18.04;48.01;101465.34;5006493;28;20048;-69
2021/08/20 09:05:03;;;;;;;6.00;3.17;;;;;;;18.05;48.56;101457.34;5034955;28;20045;-68
2021/08/20 09:07:30;;;;;;;5.65;3.28;;;;;;;18.54;48.93;101464.00;5035957;28;20143;-68
2021/08/20 09:10:11;;;;;;;5.13;2.70;;;;;;;18.96;45.88;101467.44;5017915;28;20026;-69
2021/08/20 09:12:36;;;;;;;5.15;2.72;;;;;;;19.24;46.45;101466.44;5024662;28;20037;-69
2021/08/20 09:15:03;;;;;;;4.47;3.15;;;;;;;19.09;46.42;101464.81;5023211;28;20043;-69
2021/08/20 09:17:34;;;;;;;5.60;2.45;;;;;;;19.44;45.82;101475.69;5019639;28;20135;-69
2021/08/20 09:20:18;;;;;;;3.00;2.00;;;;;;;19.83;43.86;101471.25;5037857;28;20040;-69
2021/08/20 09:22:45;;;;;;;4.05;2.53;;;;;;;20.20;43.94;101465.16;5027804;28;20044;-70
2021/08/20 09:25:33;;;;;;;4.90;3.05;;;;;;;20.04;44.22;101468.06;5024167;28;20052;-69
2021/08/20 09:28:27;;;;;;;6.13;2.53;;;;;;;20.58;42.76;101467.72;5034646;28;20055;-69
2021/08/20 09:30:56;;;;;;;3.60;2.90;;;;;;;20.37;42.65;101470.09;5022032;28;20834;-68
2021/08/20 09:33:23;;;;;;;3.33;2.40;;;;;;;20.13;42.79;101460.28;5039217;28;20044;-69
2021/08/20 09:36:09;;;;;;;4.13;2.20;;;;;;;20.48;43.05;101466.66;5034660;28;20175;-69
2021/08/20 09:38:49;;;;;;;4.20;2.55;;;;;;;20.30;42.54;101469.69;5036207;28;20029;-68
2021/08/20 09:41:17;;;;;;;4.35;2.33;;;;;;;20.08;44.47;101459.78;5037123;28;20076;-69
2021/08/20 09:43:47;;;;;;;4.53;2.85;;;;;;;20.20;44.01;101467.81;5026800;28;20158;-69
2021/08/20 09:46:15;;;;;;;6.32;2.97;;;;;;;21.05;41.46;101475.78;5021501;28;20172;-69
2021/08/20 09:48:48;;;;;;;5.25;2.42;;;;;;;22.14;38.29;101476.22;5022612;28;20040;-69
2021/08/20 09:51:34;;;;;;;2.72;1.63;;;;;;;22.04;37.91;101477.88;5035622;28;20037;-69
2021/08/20 09:54:04;;;;;;;6.88;3.00;;;;;;;21.94;38.18;101471.63;5037593;28;20048;-70
2021/08/20 09:56:30;;;;;;;5.68;1.80;;;;;;;21.69;39.80;101481.53;5037130;28;20086;-71
2021/08/20 09:58:58;;;;;;;3.40;1.60;;;;;;;21.52;39.03;101481.97;5025161;28;20045;-70
2021/08/20 10:01:26;;;;;;;2.67;1.83;;;;;;;21.51;38.79;101482.94;5038230;28;20029;-70
2021/08/20 10:03:53;;;;;;;3.03;1.80;;;;;;;21.20;38.99;101485.28;5035737;28;20055;-70
2021/08/20 10:06:19;;;;;;;2.92;1.75;;;;;;;21.32;39.96;101492.28;5035472;28;20041;-70
2021/08/20 10:08:45;;;;;;;3.08;2.05;;;;;;;21.51;38.39;101483.81;5036512;28;20094;-70
2021/08/20 10:11:16;;;;;;;4.13;1.52;;;;;;;21.45;37.45;101488.72;5035893;28;20029;-70
2021/08/20 10:13:45;;;;;;;4.03;1.73;;;;;;;20.11;37.94;101491.38;5008806;28;20058;-70
2021/08/20 10:16:12;;;;;;;2.90;1.50;;;;;;;20.70;38.80;101476.56;5033131;28;20037;-70
2021/08/20 10:18:41;;;;;;;2.53;1.55;;;;;;;20.92;38.52;101487.31;5019140;28;20068;-69
2021/08/20 10:21:08;;;;;;;2.42;1.60;;;;;;;20.54;39.21;101482.16;5036292;28;20043;-70
2021/08/20 10:23:35;;;;;;;3.25;2.28;;;;;;;20.21;40.07;101490.75;5037343;28;20405;-70
2021/08/20 10:26:02;;;;;;;3.17;1.92;;;;;;;19.54;40.76;101489.16;5035961;28;20475;-69
2021/08/20 10:28:28;;;;;;;7.13;1.85;;;;;;;19.56;41.48;101494.38;5006300;28;20032;-69
2021/08/20 10:30:54;;;;;;;6.70;2.40;;;;;;;19.67;41.75;101498.00;5034374;28;20030;-69
2021/08/20 10:33:34;;;;;;;2.88;1.88;;;;;;;19.58;42.58;101503.09;5018372;28;20021;-68
2021/08/20 10:36:01;;;;;;;4.60;2.17;;;;;;;19.55;41.32;101504.16;5035052;28;20781;-69
2021/08/20 10:38:35;;;;;;;2.67;2.20;;;;;;;19.43;41.81;101508.44;5024531;28;20037;-68
2021/08/20 10:41:18;;;;;;;5.78;2.72;;;;;;;19.63;40.93;101500.97;5032222;28;20044;-69
2021/08/20 10:44:12;;;;;;;7.63;2.13;;;;;;;21.00;40.21;101504.50;5006100;28;20136;-68
2021/08/20 10:46:42;;;;;;;5.57;2.85;;;;;;;21.99;38.13;101501.34;5036205;28;20511;-70
2021/08/20 10:49:11;;;;;;;3.13;2.33;;;;;;;22.54;34.28;101499.63;5023899;28;20036;-69
2021/08/20 10:51:49;;;;;;;4.53;2.97;;;;;;;20.61;38.64;101501.16;5036294;28;20041;-69
2021/08/20 10:54:26;;;;;;;3.28;2.17;;;;;;;21.30;38.21;101507.50;5022379;28;20037;-69
2021/08/20 10:56:52;;;;;;;4.65;2.00;;;;;;;21.37;37.25;101502.56;5029871;28;20494;-69
2021/08/20 10:59:43;;;;;;;4.72;1.98;;;;;;;22.14;37.93;101502.84;5015312;28;20047;-69
2021/08/20 11:02:18;;;;;;;5.47;2.50;;;;;;;22.87;35.83;101516.50;5011260;28;20041;-69
2021/08/20 11:05:05;;;;;;;2.90;1.40;;;;;;;22.88;35.33;101512.88;5016814;28;20394;-69
2021/08/20 11:07:41;;;;;;;2.63;1.42;;;;;;;22.73;35.82;101503.47;5031051;28;20029;-69
2021/08/20 11:10:09;;;;;;;2.90;1.15;;;;;;;23.00;34.88;101519.00;5027160;28;20168;-69
2021/08/20 11:12:42;;;;;;;3.72;1.58;;;;;;;22.92;33.69;101508.16;5031101;28;20088;-68
2021/08/20 11:15:17;;;;;;;2.53;1.55;;;;;;;22.19;35.68;101510.47;5019023;28;20084;-69
2021/08/20 11:18:00;;;;;;;4.07;1.40;;;;;;;21.45;36.39;101510.00;5034046;28;20052;-69
2021/08/20 11:20:46;;;;;;;3.03;1.58;;;;;;;21.84;36.04;101511.38;5019852;28;20111;-70
2021/08/20 11:23:12;;;;;;;1.58;0.95;;;;;;;21.45;37.58;101517.97;5033625;28;20687;-70
2021/08/20 11:25:42;;;;;;;3.28;1.40;;;;;;;21.72;36.22;101517.69;5017079;28;20032;-70
2021/08/20 11:28:14;;;;;;;3.67;1.88;;;;;;;21.32;37.79;101515.38;5016284;28;20133;-69